Accueil
METAR-TAF:

METAR-TAF

Aéroports :

Aérodrome de Granges

Granges, Suisse

latitude: 47-10-53N, longitude: 007-24-59E, altitude: 430 m

Observation

Le bulletin a été fait il y a 33 minutes, à 17:50 UTC
Vent 4 kt de est/nord-est
Température 2°C
Humidité 100%
Pression 999 hPa
Visibilité: 7000 m
Ciel couvert à une hauteur de 1300 ft
Ciel couvert à une hauteur de 1500 ft

METAR: LSZG 051750Z AUTO 06004KT 7000 OVC013 OVC015 02/02 Q0999

Heure: 19:23 (18:23 UTC)

Prévision

Le bulletin a été fait il y a 25 minutes, à 17:58 UTC
Prévision valable du 05 à 17 UTC au 05 à 24 UTC
Vent 4 kt de est/nord-est
Visibilité: 7000 m
Ciel couvert à une hauteur de 1300 ft
Temporairement
du 05 à 18 UTC au 05 à 24 UTC
Visibilité: 4500 m
pluie, neige

TAF: LSZG 051758Z 0517/0524 06004KT 7000 OVC013 TEMPO 0518/0524 4500 RASN

Observations et prévisions météorologiques de plus de 4000 aéroports (messages METAR et TAF).

Les stations disponibles sont représentées par des disques jaunes et rouges sur la carte.

Passer la souris dessus pour voir le nom de la station.

Cliquer dessus pour voir les observations et prévisions météorologiques.

Pour changer de carte: cliquez sur les boutons verts avec une croix noire pour zoomer, sur le bouton vert avec un tiret pour effectuer un zoom arrière, ou sur les flèches vertes pour les cartes adjacentes.


METAR-TAF: